createdAt,value
2022-12-09T00:01:03.645Z,-1.10
2022-12-09T00:03:30.867Z,-1.10
2022-12-09T00:05:57.724Z,-1.20
2022-12-09T00:08:24.600Z,-1.20
2022-12-09T00:10:51.370Z,-1.30
2022-12-09T00:13:18.205Z,-1.20
2022-12-09T00:15:44.929Z,-1.20
2022-12-09T00:18:11.587Z,-1.30
2022-12-09T00:20:38.202Z,-1.40
2022-12-09T00:23:06.080Z,-1.40
2022-12-09T00:25:32.763Z,-1.40
2022-12-09T00:27:59.373Z,-1.40
2022-12-09T00:30:26.260Z,-1.40
2022-12-09T00:32:53.110Z,-1.40
2022-12-09T00:35:19.968Z,-1.40
2022-12-09T00:37:46.639Z,-1.40
2022-12-09T00:40:14.037Z,-1.40
2022-12-09T00:42:40.881Z,-1.50
2022-12-09T00:45:08.518Z,-1.60
2022-12-09T00:47:35.690Z,-1.60
2022-12-09T00:50:03.034Z,-1.70
2022-12-09T00:52:29.892Z,-1.70
2022-12-09T00:54:56.862Z,-1.70
2022-12-09T00:57:23.743Z,-1.70
2022-12-09T00:59:50.390Z,-1.80
2022-12-09T01:02:17.172Z,-1.80
2022-12-09T01:04:44.145Z,-1.70
2022-12-09T01:07:11.016Z,-1.80
2022-12-09T01:09:37.796Z,-1.80
2022-12-09T01:12:04.756Z,-1.90
2022-12-09T01:14:31.563Z,-1.90
2022-12-09T01:16:58.217Z,-1.80
2022-12-09T01:19:24.837Z,-1.80
2022-12-09T01:21:55.496Z,-1.80
2022-12-09T01:24:22.843Z,-1.80
2022-12-09T01:26:49.631Z,-1.80
2022-12-09T01:29:16.408Z,-1.90
2022-12-09T01:31:43.661Z,-1.90
2022-12-09T01:34:10.697Z,-1.90
2022-12-09T01:36:37.518Z,-1.80
2022-12-09T01:39:04.298Z,-1.90
2022-12-09T01:41:30.928Z,-1.90
2022-12-09T01:44:16.179Z,-1.90
2022-12-09T01:46:43.630Z,-2.00
2022-12-09T01:49:16.038Z,-2.10
2022-12-09T01:51:45.678Z,-2.10
2022-12-09T01:54:12.580Z,-2.10
2022-12-09T01:56:40.346Z,-2.10
2022-12-09T01:59:11.155Z,-2.10
2022-12-09T02:01:39.029Z,-2.10
2022-12-09T02:04:06.995Z,-2.10
2022-12-09T02:06:37.049Z,-2.10
2022-12-09T02:09:04.578Z,-2.00
2022-12-09T02:11:53.311Z,-2.00
2022-12-09T02:14:42.062Z,-2.00
2022-12-09T02:17:23.836Z,-2.00
2022-12-09T02:20:01.727Z,-2.00
2022-12-09T02:22:45.284Z,-2.00
2022-12-09T02:25:14.975Z,-2.00
2022-12-09T02:28:12.369Z,-1.90
2022-12-09T02:30:54.987Z,-2.00
2022-12-09T02:33:36.467Z,-2.00
2022-12-09T02:36:09.429Z,-2.00
2022-12-09T02:38:39.350Z,-2.10
2022-12-09T02:41:24.957Z,-2.10
2022-12-09T02:44:00.399Z,-2.20
2022-12-09T02:46:28.640Z,-2.20
2022-12-09T02:48:58.528Z,-2.30
2022-12-09T02:51:29.297Z,-2.20
2022-12-09T02:54:03.910Z,-2.10
2022-12-09T02:56:32.370Z,-2.10
2022-12-09T02:58:59.169Z,-2.20
2022-12-09T03:02:12.544Z,-2.20
2022-12-09T03:04:44.410Z,-2.20
2022-12-09T03:07:25.317Z,-2.20
2022-12-09T03:10:01.661Z,-2.20
2022-12-09T03:12:32.674Z,-2.20
2022-12-09T03:15:03.953Z,-2.20
2022-12-09T03:17:39.174Z,-2.20
2022-12-09T03:20:14.312Z,-2.20
2022-12-09T03:22:43.375Z,-2.20
2022-12-09T03:25:14.025Z,-2.20
2022-12-09T03:27:49.921Z,-2.20
2022-12-09T03:30:17.521Z,-2.30
2022-12-09T03:32:46.221Z,-2.30
2022-12-09T03:35:39.594Z,-2.20
2022-12-09T03:38:11.001Z,-2.20
2022-12-09T03:40:38.897Z,-2.10
2022-12-09T03:43:20.934Z,-2.20
2022-12-09T03:45:47.993Z,-2.20
2022-12-09T03:48:15.542Z,-2.10
2022-12-09T03:50:52.908Z,-2.00
2022-12-09T03:53:25.622Z,-1.90
2022-12-09T03:55:59.344Z,-1.90
2022-12-09T03:58:32.124Z,-1.80
2022-12-09T04:00:59.146Z,-1.90
2022-12-09T04:03:26.636Z,-1.90
2022-12-09T04:05:53.645Z,-1.90
2022-12-09T04:08:20.660Z,-2.00
2022-12-09T04:10:47.582Z,-2.10
2022-12-09T04:13:14.373Z,-2.20
2022-12-09T04:15:41.175Z,-2.20
2022-12-09T04:18:08.070Z,-2.10
2022-12-09T04:20:34.827Z,-2.20
2022-12-09T04:23:01.481Z,-2.20
2022-12-09T04:25:28.506Z,-2.20
2022-12-09T04:27:55.185Z,-2.20
2022-12-09T04:30:21.986Z,-2.20
2022-12-09T04:32:48.843Z,-2.30
2022-12-09T04:35:16.267Z,-2.30
2022-12-09T04:37:43.259Z,-2.40
2022-12-09T04:40:10.680Z,-2.40
2022-12-09T04:42:37.852Z,-2.50
2022-12-09T04:45:04.830Z,-2.40
2022-12-09T04:47:33.840Z,-2.50
2022-12-09T04:50:00.770Z,-2.50
2022-12-09T04:52:27.621Z,-2.60
2022-12-09T04:54:54.705Z,-2.60
2022-12-09T04:57:21.577Z,-2.50
2022-12-09T04:59:48.438Z,-2.50
2022-12-09T05:02:15.168Z,-2.60
2022-12-09T05:04:42.940Z,-2.50
2022-12-09T05:07:11.714Z,-2.60
2022-12-09T05:09:38.606Z,-2.50
2022-12-09T05:12:06.410Z,-2.40
2022-12-09T05:14:33.386Z,-2.40
2022-12-09T05:17:00.113Z,-2.40
2022-12-09T05:19:27.154Z,-2.40
2022-12-09T05:21:54.087Z,-2.40
2022-12-09T05:24:20.752Z,-2.30
2022-12-09T05:26:47.404Z,-2.30
2022-12-09T05:29:19.294Z,-2.20
2022-12-09T05:31:51.486Z,-2.20
2022-12-09T05:34:19.006Z,-2.20
2022-12-09T05:36:46.127Z,-2.20
2022-12-09T05:39:12.930Z,-2.10
2022-12-09T05:41:39.664Z,-1.90
2022-12-09T05:44:06.476Z,-2.00
2022-12-09T05:46:33.701Z,-1.80
2022-12-09T05:49:01.098Z,-1.70
2022-12-09T05:51:30.017Z,-1.60
2022-12-09T05:54:01.251Z,-1.50
2022-12-09T05:56:28.467Z,-1.50
2022-12-09T05:58:55.805Z,-1.50
2022-12-09T06:01:24.318Z,-1.40
2022-12-09T06:03:52.970Z,-1.30
2022-12-09T06:06:22.995Z,-1.30
2022-12-09T06:08:50.183Z,-1.40
2022-12-09T06:11:22.183Z,-1.50
2022-12-09T06:13:49.859Z,-1.50
2022-12-09T06:16:19.722Z,-1.60
2022-12-09T06:18:47.588Z,-1.60
2022-12-09T06:21:15.787Z,-1.90
2022-12-09T06:23:43.542Z,-2.00
2022-12-09T06:26:20.300Z,-1.90
2022-12-09T06:28:47.597Z,-1.90
2022-12-09T06:31:14.940Z,-2.00
2022-12-09T06:33:59.139Z,-2.00
2022-12-09T06:36:29.188Z,-2.00
2022-12-09T06:38:57.564Z,-2.10
2022-12-09T06:41:25.330Z,-2.10
2022-12-09T06:43:52.184Z,-2.10
2022-12-09T06:46:24.644Z,-2.10
2022-12-09T06:48:53.211Z,-2.00
2022-12-09T06:51:21.543Z,-2.10
2022-12-09T06:53:48.356Z,-2.10
2022-12-09T06:56:16.232Z,-2.10
2022-12-09T06:58:45.129Z,-2.10
2022-12-09T07:01:25.160Z,-2.00
2022-12-09T07:03:55.656Z,-2.00
2022-12-09T07:06:41.740Z,-1.90
2022-12-09T07:09:10.608Z,-1.90
2022-12-09T07:11:37.852Z,-1.90
2022-12-09T07:14:05.300Z,-1.90
2022-12-09T07:16:32.727Z,-1.90
2022-12-09T07:18:59.687Z,-1.90
2022-12-09T07:21:27.617Z,-1.80
2022-12-09T07:23:54.702Z,-1.70
2022-12-09T07:26:22.155Z,-1.70
2022-12-09T07:28:50.408Z,-1.60
2022-12-09T07:31:21.622Z,-1.50
2022-12-09T07:33:50.034Z,-1.40
2022-12-09T07:36:20.943Z,-1.30
2022-12-09T07:38:48.938Z,-1.30
2022-12-09T07:41:18.550Z,-1.30
2022-12-09T07:43:46.162Z,-1.40
2022-12-09T07:46:15.718Z,-1.40
2022-12-09T07:48:43.394Z,-1.40
2022-12-09T07:51:10.864Z,-1.40
2022-12-09T07:53:38.630Z,-1.50
2022-12-09T07:56:08.586Z,-1.60
2022-12-09T07:58:35.727Z,-1.60
2022-12-09T08:01:10.340Z,-1.60
2022-12-09T08:03:37.463Z,-1.80
2022-12-09T08:06:04.936Z,-1.80
2022-12-09T08:08:32.941Z,-1.90
2022-12-09T08:11:14.924Z,-1.80
2022-12-09T08:13:42.416Z,-1.80
2022-12-09T08:16:11.594Z,-1.80
2022-12-09T08:18:39.117Z,-1.90
2022-12-09T08:21:08.390Z,-1.80
2022-12-09T08:23:35.714Z,-1.80
2022-12-09T08:26:03.144Z,-1.90
2022-12-09T08:28:30.680Z,-1.80
2022-12-09T08:30:58.414Z,-1.80
2022-12-09T08:33:26.294Z,-1.70
2022-12-09T08:35:53.545Z,-1.60
2022-12-09T08:38:20.445Z,-1.60
2022-12-09T08:40:47.544Z,-1.60
2022-12-09T08:43:14.662Z,-1.50
2022-12-09T08:45:41.918Z,-1.40
2022-12-09T08:48:09.598Z,-1.30
2022-12-09T08:50:36.876Z,-1.20
2022-12-09T08:53:03.879Z,-1.20
2022-12-09T08:55:30.710Z,-1.10
2022-12-09T08:57:58.120Z,-1.00
2022-12-09T09:00:25.067Z,-0.80
2022-12-09T09:02:52.176Z,-0.60
2022-12-09T09:05:19.104Z,-0.60
2022-12-09T09:07:46.750Z,-0.50
2022-12-09T09:10:14.309Z,-0.40
2022-12-09T09:12:43.880Z,-0.30
2022-12-09T09:15:11.814Z,-0.10
2022-12-09T09:17:38.929Z,-0.10
2022-12-09T09:20:07.917Z,-0.10
2022-12-09T09:22:35.313Z,0.00
2022-12-09T09:25:02.389Z,-0.10
2022-12-09T09:27:29.233Z,-0.20
2022-12-09T09:29:56.293Z,-0.20
2022-12-09T09:32:23.267Z,-0.20
2022-12-09T09:34:50.716Z,-0.10
2022-12-09T09:37:17.720Z,0.00
2022-12-09T09:39:44.778Z,0.20
2022-12-09T09:42:23.451Z,0.20
2022-12-09T09:44:53.538Z,0.30
2022-12-09T09:47:38.109Z,0.40
2022-12-09T09:50:33.852Z,0.50
2022-12-09T09:53:10.406Z,0.70
2022-12-09T09:55:44.689Z,0.90
2022-12-09T09:58:45.774Z,0.90
2022-12-09T10:01:18.874Z,1.10
2022-12-09T10:04:13.987Z,1.30
2022-12-09T10:06:51.934Z,1.40
2022-12-09T10:09:32.172Z,1.40
2022-12-09T10:12:07.549Z,1.30
2022-12-09T10:15:17.086Z,1.30
2022-12-09T10:18:18.321Z,1.20
2022-12-09T10:20:45.974Z,1.10
2022-12-09T10:23:15.508Z,1.20
2022-12-09T10:25:47.339Z,1.30
2022-12-09T10:28:26.305Z,1.30
2022-12-09T10:30:55.407Z,1.30
2022-12-09T10:33:30.703Z,1.40
2022-12-09T10:35:57.663Z,1.50
2022-12-09T10:38:25.515Z,1.60
2022-12-09T10:41:08.134Z,1.60
2022-12-09T10:43:37.746Z,1.60
2022-12-09T10:46:23.196Z,1.70
2022-12-09T10:48:50.548Z,1.70
2022-12-09T10:51:38.988Z,1.70
2022-12-09T10:54:15.381Z,1.70
2022-12-09T10:57:08.293Z,1.90
2022-12-09T10:59:36.058Z,1.90
2022-12-09T11:02:08.804Z,2.10
2022-12-09T11:04:36.813Z,2.20
2022-12-09T11:07:07.568Z,2.30
2022-12-09T11:09:37.692Z,2.30
2022-12-09T11:12:07.705Z,2.30
2022-12-09T11:14:38.949Z,2.20
2022-12-09T11:17:16.777Z,2.10
2022-12-09T11:19:47.907Z,2.10
2022-12-09T11:22:23.086Z,2.10
2022-12-09T11:24:54.542Z,2.10
2022-12-09T11:27:31.068Z,2.20
2022-12-09T11:30:29.299Z,2.30
2022-12-09T11:33:06.225Z,2.60
2022-12-09T11:35:51.043Z,2.70
2022-12-09T11:38:41.079Z,2.60
2022-12-09T11:41:39.668Z,2.70
2022-12-09T11:44:15.192Z,2.70
2022-12-09T11:46:42.112Z,2.80
2022-12-09T11:49:17.066Z,2.80
2022-12-09T11:52:00.715Z,2.80
2022-12-09T11:54:57.239Z,2.70
2022-12-09T11:57:58.340Z,2.70
2022-12-09T12:00:29.186Z,2.80
2022-12-09T12:03:03.199Z,2.90
2022-12-09T12:05:33.995Z,2.80
2022-12-09T12:08:06.869Z,2.70
2022-12-09T12:10:41.666Z,2.70
2022-12-09T12:13:26.253Z,2.90
2022-12-09T12:16:07.069Z,2.90
2022-12-09T12:18:48.887Z,2.90
2022-12-09T12:21:19.886Z,2.90
2022-12-09T12:24:11.386Z,3.00
2022-12-09T12:26:58.059Z,3.10
2022-12-09T12:29:38.771Z,3.00
2022-12-09T12:32:12.710Z,3.00
2022-12-09T12:35:06.900Z,3.10
2022-12-09T12:38:23.172Z,3.10
2022-12-09T12:40:52.624Z,3.00
2022-12-09T12:44:15.647Z,3.00
2022-12-09T12:47:06.675Z,3.00
2022-12-09T12:49:52.817Z,3.00
2022-12-09T12:52:47.487Z,3.10
2022-12-09T12:55:23.269Z,3.10
2022-12-09T12:57:52.632Z,3.00
2022-12-09T13:00:21.894Z,3.10
2022-12-09T13:03:25.923Z,3.10
2022-12-09T13:05:56.320Z,3.00
2022-12-09T13:08:27.188Z,3.10
2022-12-09T13:10:57.204Z,3.00
2022-12-09T13:13:27.070Z,3.00
2022-12-09T13:16:01.480Z,3.00
2022-12-09T13:18:37.049Z,2.90
2022-12-09T13:21:07.325Z,2.90
2022-12-09T13:24:03.226Z,2.80
2022-12-09T13:26:52.765Z,2.70
2022-12-09T13:29:42.215Z,2.70
2022-12-09T13:32:12.189Z,2.60
2022-12-09T13:34:40.370Z,2.50
2022-12-09T13:37:34.732Z,2.30
2022-12-09T13:40:02.574Z,2.20
2022-12-09T13:42:47.989Z,2.10
2022-12-09T13:45:25.815Z,2.10
2022-12-09T13:47:53.675Z,2.10
2022-12-09T13:50:43.064Z,2.10
2022-12-09T13:53:33.701Z,2.20
2022-12-09T13:56:03.528Z,2.20
2022-12-09T13:58:37.235Z,2.20
2022-12-09T14:01:26.716Z,2.10
2022-12-09T14:04:02.107Z,1.90
2022-12-09T14:06:31.787Z,1.80
2022-12-09T14:09:12.593Z,1.80
2022-12-09T14:11:51.002Z,1.60
2022-12-09T14:14:23.570Z,1.50
2022-12-09T14:16:57.772Z,1.40
2022-12-09T14:19:24.278Z,1.20
2022-12-09T14:22:19.799Z,1.20
2022-12-09T14:25:19.458Z,1.10
2022-12-09T14:28:14.011Z,1.10
2022-12-09T14:31:04.850Z,1.00
2022-12-09T14:33:36.275Z,0.90
2022-12-09T14:36:25.917Z,0.90
2022-12-09T14:39:16.157Z,0.70
2022-12-09T14:41:59.350Z,0.70
2022-12-09T14:44:42.689Z,0.60
2022-12-09T14:47:24.838Z,0.60
2022-12-09T14:49:53.804Z,0.50
2022-12-09T14:52:32.791Z,0.40
2022-12-09T14:55:04.208Z,0.40
2022-12-09T14:57:38.309Z,0.40
2022-12-09T15:00:06.893Z,0.30
2022-12-09T15:02:33.939Z,0.30
2022-12-09T15:05:02.000Z,0.20
2022-12-09T15:07:31.283Z,0.20
2022-12-09T15:10:07.858Z,0.10
2022-12-09T15:12:36.327Z,0.10
2022-12-09T15:15:23.163Z,0.10
2022-12-09T15:18:04.672Z,0.00
2022-12-09T15:20:41.781Z,0.00
2022-12-09T15:23:17.382Z,-0.10
2022-12-09T15:25:56.586Z,-0.20
2022-12-09T15:28:26.999Z,-0.20
2022-12-09T15:30:58.128Z,-0.30
2022-12-09T15:33:25.188Z,-0.20
2022-12-09T15:36:03.026Z,-0.20
2022-12-09T15:42:00.368Z,-0.40
2022-12-09T15:44:30.351Z,-0.40
2022-12-09T15:46:57.950Z,-0.40
2022-12-09T15:49:32.429Z,-0.50
2022-12-09T15:52:02.587Z,-0.60
2022-12-09T15:54:39.903Z,-0.60
2022-12-09T15:57:08.994Z,-0.50
2022-12-09T15:59:39.725Z,-0.60
2022-12-09T16:02:10.396Z,-0.60
2022-12-09T16:04:42.233Z,-0.70
2022-12-09T16:07:14.796Z,-0.70
2022-12-09T16:09:41.838Z,-0.70
2022-12-09T16:12:25.433Z,-0.70
2022-12-09T16:14:51.996Z,-0.80
2022-12-09T16:17:27.390Z,-0.80
2022-12-09T16:19:54.433Z,-0.80
2022-12-09T16:22:29.842Z,-0.80
2022-12-09T16:25:15.308Z,-0.80
2022-12-09T16:27:49.561Z,-0.70
2022-12-09T16:30:19.811Z,-0.80
2022-12-09T16:32:57.603Z,-0.80
2022-12-09T16:35:27.771Z,-0.80
2022-12-09T16:37:57.555Z,-0.90
2022-12-09T16:40:24.096Z,-0.90
2022-12-09T16:42:55.376Z,-0.90
2022-12-09T16:45:22.100Z,-1.00
2022-12-09T16:47:54.133Z,-0.90
2022-12-09T16:50:22.409Z,-0.90
2022-12-09T16:52:49.036Z,-0.90
2022-12-09T16:55:22.034Z,-0.80
2022-12-09T16:57:49.379Z,-0.70
2022-12-09T17:00:17.256Z,-0.60
2022-12-09T17:03:03.879Z,-0.50
2022-12-09T17:05:30.410Z,-0.50
2022-12-09T17:07:57.409Z,-0.40
2022-12-09T17:10:24.315Z,-0.20
2022-12-09T17:12:50.983Z,-0.10
2022-12-09T17:15:20.069Z,-0.10
2022-12-09T17:17:48.855Z,-0.10
2022-12-09T17:20:16.398Z,-0.10
2022-12-09T17:22:43.269Z,-0.10
2022-12-09T17:25:10.291Z,-0.20
2022-12-09T17:27:37.265Z,-0.20
2022-12-09T17:30:04.739Z,-0.20
2022-12-09T17:32:31.741Z,-0.20
2022-12-09T17:34:58.373Z,-0.30
2022-12-09T17:37:24.952Z,-0.30
2022-12-09T17:39:56.853Z,-0.30
2022-12-09T17:42:33.336Z,-0.30
2022-12-09T17:44:59.908Z,-0.30
2022-12-09T17:47:27.096Z,-0.30
2022-12-09T17:49:53.724Z,-0.30
2022-12-09T17:52:20.679Z,-0.40
2022-12-09T17:54:47.737Z,-0.50
2022-12-09T17:57:14.674Z,-0.50
2022-12-09T17:59:41.260Z,-0.50
2022-12-09T18:02:10.560Z,-0.50
2022-12-09T18:04:37.317Z,-0.40
2022-12-09T18:07:03.869Z,-0.30
2022-12-09T18:09:30.424Z,-0.40
2022-12-09T18:11:56.994Z,-0.30
2022-12-09T18:14:25.333Z,-0.30
2022-12-09T18:16:52.002Z,-0.30
2022-12-09T18:19:20.204Z,-0.40
2022-12-09T18:21:46.917Z,-0.40
2022-12-09T18:24:13.607Z,-0.50
2022-12-09T18:26:42.229Z,-0.50
2022-12-09T18:29:10.418Z,-0.50
2022-12-09T18:31:37.154Z,-0.50
2022-12-09T18:34:03.798Z,-0.60
2022-12-09T18:36:30.428Z,-0.70
2022-12-09T18:39:00.080Z,-0.90
2022-12-09T18:41:30.992Z,-1.00
2022-12-09T18:44:00.492Z,-0.90
2022-12-09T18:46:29.676Z,-0.70
2022-12-09T18:49:08.679Z,-0.50
2022-12-09T18:51:36.106Z,-0.30
2022-12-09T18:54:03.981Z,-0.20
2022-12-09T18:56:30.633Z,-0.10
2022-12-09T18:59:06.446Z,0.00
2022-12-09T19:01:38.740Z,0.20
2022-12-09T19:04:05.764Z,0.20
2022-12-09T19:06:37.245Z,0.30
2022-12-09T19:09:07.159Z,0.30
2022-12-09T19:11:36.781Z,0.30
2022-12-09T19:14:05.277Z,0.40
2022-12-09T19:16:32.359Z,0.50
2022-12-09T19:19:03.693Z,0.50
2022-12-09T19:21:34.363Z,0.40
2022-12-09T19:24:01.044Z,0.50
2022-12-09T19:26:31.076Z,0.50
2022-12-09T19:29:00.795Z,0.50
2022-12-09T19:31:38.850Z,0.50
2022-12-09T19:34:12.471Z,0.50
2022-12-09T19:36:39.346Z,0.60
2022-12-09T19:39:08.185Z,0.60
2022-12-09T19:41:36.535Z,0.50
2022-12-09T19:44:04.796Z,0.40
2022-12-09T19:46:32.267Z,0.40
2022-12-09T19:48:59.432Z,0.40
2022-12-09T19:51:27.297Z,0.50
2022-12-09T19:53:58.999Z,0.60
2022-12-09T19:56:26.125Z,0.60
2022-12-09T19:58:53.588Z,0.50
2022-12-09T20:01:21.801Z,0.50
2022-12-09T20:03:51.518Z,0.50
2022-12-09T20:06:20.061Z,0.50
2022-12-09T20:08:47.321Z,0.50
2022-12-09T20:11:24.701Z,0.40
2022-12-09T20:13:52.760Z,0.40
2022-12-09T20:16:22.622Z,0.40
2022-12-09T20:18:50.833Z,0.30
2022-12-09T20:21:19.284Z,0.30
2022-12-09T20:23:46.630Z,0.40
2022-12-09T20:26:15.957Z,0.40
2022-12-09T20:28:44.134Z,0.40
2022-12-09T20:31:13.818Z,0.50
2022-12-09T20:33:41.674Z,0.40
2022-12-09T20:36:17.132Z,0.40
2022-12-09T20:38:48.319Z,0.40
2022-12-09T20:41:15.227Z,0.50
2022-12-09T20:43:43.403Z,0.50
2022-12-09T20:46:13.128Z,0.50
2022-12-09T20:48:40.993Z,0.50
2022-12-09T20:51:12.768Z,0.50
2022-12-09T20:53:41.021Z,0.40
2022-12-09T20:56:08.697Z,0.30
2022-12-09T20:58:36.684Z,0.40
2022-12-09T21:01:09.280Z,0.30
2022-12-09T21:03:36.231Z,0.20
2022-12-09T21:06:04.056Z,0.20
2022-12-09T21:08:32.006Z,0.20
2022-12-09T21:11:07.760Z,0.20
2022-12-09T21:13:39.632Z,0.20
2022-12-09T21:16:15.924Z,0.20
2022-12-09T21:18:43.146Z,0.20
2022-12-09T21:21:10.053Z,0.10
2022-12-09T21:23:37.759Z,0.20
2022-12-09T21:26:13.700Z,0.20
2022-12-09T21:28:41.393Z,0.30
2022-12-09T21:31:10.517Z,0.30
2022-12-09T21:33:38.093Z,0.30
2022-12-09T21:36:10.369Z,0.20
2022-12-09T21:38:37.848Z,0.30
2022-12-09T21:41:06.852Z,0.20
2022-12-09T21:43:34.567Z,0.10
2022-12-09T21:46:02.855Z,0.20
2022-12-09T21:48:29.651Z,0.30
2022-12-09T21:50:57.819Z,0.20
2022-12-09T21:53:24.564Z,0.20
2022-12-09T21:55:51.611Z,0.30
2022-12-09T21:58:18.632Z,0.20
2022-12-09T22:00:45.258Z,0.20
2022-12-09T22:03:11.955Z,0.20
2022-12-09T22:05:38.720Z,0.20
2022-12-09T22:08:05.706Z,0.20
2022-12-09T22:10:36.592Z,0.10
2022-12-09T22:13:03.488Z,0.20
2022-12-09T22:15:30.906Z,0.20
2022-12-09T22:17:57.614Z,0.20
2022-12-09T22:21:00.772Z,0.20
2022-12-09T22:23:11.169Z,0.20
2022-12-09T22:25:39.075Z,0.00
2022-12-09T22:28:05.756Z,0.10
2022-12-09T22:30:36.057Z,0.20
2022-12-09T22:33:03.113Z,0.20
2022-12-09T22:35:29.940Z,0.20
2022-12-09T22:37:59.240Z,0.10
2022-12-09T22:40:27.065Z,0.10
2022-12-09T22:42:53.870Z,0.00
2022-12-09T22:45:20.471Z,0.00
2022-12-09T22:47:47.476Z,0.10
2022-12-09T22:50:14.090Z,0.20
2022-12-09T22:52:40.644Z,0.20
2022-12-09T22:55:10.930Z,0.10
2022-12-09T22:57:37.896Z,0.20
2022-12-09T23:00:11.369Z,0.20
2022-12-09T23:02:39.283Z,0.20
2022-12-09T23:05:07.484Z,0.20
2022-12-09T23:07:35.373Z,0.20
2022-12-09T23:10:02.353Z,0.20
2022-12-09T23:12:29.100Z,0.10
2022-12-09T23:14:55.703Z,0.00
2022-12-09T23:17:22.412Z,0.10
2022-12-09T23:19:49.088Z,0.10
2022-12-09T23:22:16.707Z,0.10
2022-12-09T23:24:43.274Z,0.10
2022-12-09T23:27:10.283Z,0.20
2022-12-09T23:29:37.819Z,0.20
2022-12-09T23:32:04.741Z,0.10
2022-12-09T23:34:31.317Z,0.20
2022-12-09T23:36:58.093Z,0.20
2022-12-09T23:39:24.652Z,0.20
2022-12-09T23:41:51.420Z,0.30
2022-12-09T23:44:18.818Z,0.30
2022-12-09T23:46:45.939Z,0.30
2022-12-09T23:49:12.994Z,0.30
2022-12-09T23:51:41.518Z,0.20
2022-12-09T23:54:09.593Z,0.30
2022-12-09T23:56:39.044Z,0.30
2022-12-09T23:59:08.200Z,0.30
